Time;durP1;ratioP1;P1;durP2;ratioP2;P2;SDS_P1;SDS_P2;PMS_P1;PMS_P2;Temp;Humidity;BMP_temperature;BMP_pressure;BME280_temperature;BME280_humidity;BME280_pressure;Samples;Min_cycle;Max_cycle;Signal;HPM_P1;HPM_P2
2023/01/15 00:01:07;;;;;;;10.43;1.85;;;8.60;99.90;;;;;;5073650;28;20027;-84
2023/01/15 00:03:36;;;;;;;12.85;3.85;;;8.50;99.90;;;;;;5073676;28;20467;-83
2023/01/15 00:06:07;;;;;;;7.20;1.33;;;8.50;99.90;;;;;;5073872;28;20396;-84
2023/01/15 00:08:34;;;;;;;8.48;1.92;;;8.50;99.90;;;;;;5073622;28;20534;-83
2023/01/15 00:11:18;;;;;;;10.48;2.00;;;8.50;99.90;;;;;;5073609;28;20472;-84
2023/01/15 00:13:45;;;;;;;10.88;2.15;;;8.40;99.90;;;;;;5073590;28;20028;-83
2023/01/15 00:16:21;;;;;;;13.30;2.10;;;8.40;99.90;;;;;;5073204;28;20020;-83
2023/01/15 00:18:51;;;;;;;5.97;1.20;;;8.40;99.90;;;;;;5055484;28;20041;-83
2023/01/15 00:21:43;;;;;;;8.52;1.83;;;8.40;99.90;;;;;;5074697;28;20021;-83
2023/01/15 00:27:39;;;;;;;17.08;3.53;;;8.40;99.90;;;;;;5073723;28;20102;-85
2023/01/15 00:30:07;;;;;;;8.82;1.70;;;8.40;99.90;;;;;;5073065;28;20028;-83
2023/01/15 00:32:33;;;;;;;9.80;2.47;;;8.30;99.90;;;;;;5072700;28;20116;-84
2023/01/15 00:34:59;;;;;;;13.77;2.05;;;8.30;99.90;;;;;;5056182;28;20128;-83
2023/01/15 00:37:25;;;;;;;11.63;2.10;;;8.30;99.90;;;;;;5055911;28;20143;-83
2023/01/15 00:39:51;;;;;;;10.52;2.15;;;8.30;99.90;;;;;;5072632;28;20082;-84
2023/01/15 00:42:17;;;;;;;11.60;2.30;;;8.30;99.90;;;;;;5072728;28;20032;-83
2023/01/15 00:44:43;;;;;;;17.50;2.92;;;8.30;99.90;;;;;;5039576;28;20123;-83
2023/01/15 00:47:13;;;;;;;10.93;2.47;;;8.30;99.90;;;;;;5055849;28;20123;-83
2023/01/15 00:49:42;;;;;;;10.15;2.10;;;8.30;99.90;;;;;;5072755;28;20032;-83
2023/01/15 00:52:11;;;;;;;12.10;2.30;;;8.30;99.90;;;;;;5072188;28;20123;-83
2023/01/15 00:54:37;;;;;;;13.00;2.28;;;8.30;99.90;;;;;;5072668;28;20404;-83
2023/01/15 00:57:05;;;;;;;14.80;1.92;;;8.30;99.90;;;;;;5072817;28;20020;-83
2023/01/15 00:59:41;;;;;;;;;;;;;;;;;;;;;
2023/01/15 01:02:07;;;;;;;10.13;1.90;;;8.20;99.90;;;;;;5073252;28;20070;-84
2023/01/15 01:04:43;;;;;;;8.52;1.90;;;8.30;99.90;;;;;;5072241;28;20454;-82
2023/01/15 01:07:12;;;;;;;11.98;1.95;;;8.20;99.90;;;;;;5072481;28;20426;-84
2023/01/15 01:09:43;;;;;;;11.75;2.33;;;8.20;99.90;;;;;;5072141;28;20103;-83
2023/01/15 01:12:20;;;;;;;7.28;1.60;;;8.20;99.90;;;;;;5072331;28;20494;-84
2023/01/15 01:14:45;;;;;;;12.55;1.67;;;8.20;99.90;;;;;;5072382;28;20027;-82
2023/01/15 01:17:16;;;;;;;17.15;2.15;;;8.20;99.90;;;;;;5073208;28;20453;-83
2023/01/15 01:19:44;;;;;;;12.02;3.13;;;8.20;99.90;;;;;;5072517;28;20064;-83
2023/01/15 01:22:20;;;;;;;;;;;;;;;;;;;;;
2023/01/15 01:24:49;;;;;;;10.20;1.88;;;8.10;99.90;;;;;;5073583;28;20039;-83
2023/01/15 01:27:24;;;;;;;9.38;2.22;;;8.20;99.90;;;;;;5055559;28;20074;-83
2023/01/15 01:29:50;;;;;;;8.88;2.25;;;8.20;99.90;;;;;;5055977;28;20025;-83
2023/01/15 01:32:18;;;;;;;13.63;1.95;;;8.10;99.90;;;;;;5072054;28;20054;-83
2023/01/15 01:34:44;;;;;;;12.43;2.38;;;8.10;99.90;;;;;;5072245;28;20029;-83
2023/01/15 01:37:10;;;;;;;10.75;2.20;;;8.10;99.90;;;;;;5072085;28;20023;-83
2023/01/15 01:39:35;;;;;;;13.85;1.88;;;8.10;99.90;;;;;;5072040;28;20021;-83
2023/01/15 01:42:01;;;;;;;10.48;1.65;;;8.10;99.90;;;;;;5072241;28;20025;-82
2023/01/15 01:44:36;;;;;;;10.27;1.90;;;8.10;99.90;;;;;;5072176;28;20075;-82
2023/01/15 01:47:08;;;;;;;11.10;1.85;;;8.10;99.90;;;;;;5072315;28;20031;-83
2023/01/15 01:49:36;;;;;;;9.50;1.70;;;8.10;99.90;;;;;;5071813;28;20486;-83
2023/01/15 01:52:09;;;;;;;13.23;2.83;;;8.10;99.90;;;;;;5071939;28;20031;-83
2023/01/15 01:54:37;;;;;;;13.48;2.28;;;8.00;99.90;;;;;;5071845;28;20510;-83
2023/01/15 01:57:05;;;;;;;13.30;1.92;;;8.00;99.90;;;;;;5072095;28;20028;-83
2023/01/15 01:59:34;;;;;;;12.88;1.60;;;8.00;99.90;;;;;;5055342;28;20063;-83
2023/01/15 02:02:00;;;;;;;12.25;1.63;;;8.00;99.90;;;;;;5071781;28;20052;-83
2023/01/15 02:04:27;;;;;;;11.85;2.17;;;8.00;99.90;;;;;;5072843;28;20048;-83
2023/01/15 02:06:59;;;;;;;10.77;1.75;;;8.00;99.90;;;;;;5072054;28;20020;-82
2023/01/15 02:09:25;;;;;;;11.82;2.25;;;8.00;99.90;;;;;;5071588;28;20025;-82
2023/01/15 02:11:57;;;;;;;11.85;1.67;;;8.00;99.90;;;;;;5071343;28;20021;-83
2023/01/15 02:14:43;;;;;;;8.90;1.60;;;8.00;99.90;;;;;;5073117;28;20021;-83
2023/01/15 02:17:24;;;;;;;10.40;1.60;;;7.90;99.90;;;;;;5075940;28;20383;-83
2023/01/15 02:20:09;;;;;;;12.13;2.05;;;7.90;99.90;;;;;;5076869;28;20104;-83
2023/01/15 02:23:01;;;;;;;15.02;2.92;;;7.90;99.90;;;;;;5075413;28;20117;-82
2023/01/15 02:25:45;;;;;;;8.82;1.58;;;7.90;99.90;;;;;;5076440;28;20040;-83
2023/01/15 02:28:33;;;;;;;15.60;2.03;;;7.80;99.90;;;;;;5075261;28;20529;-83
2023/01/15 02:31:16;;;;;;;11.82;2.08;;;7.80;99.90;;;;;;5075529;28;20043;-83
2023/01/15 02:33:54;;;;;;;11.90;1.95;;;7.80;99.90;;;;;;5076434;28;20033;-82
2023/01/15 02:36:23;;;;;;;13.30;2.30;;;7.80;99.90;;;;;;5077075;28;20053;-83
2023/01/15 02:38:53;;;;;;;10.25;1.67;;;7.80;99.90;;;;;;5075720;28;20479;-83
2023/01/15 02:41:25;;;;;;;12.70;2.93;;;7.80;99.90;;;;;;5075449;28;20067;-83
2023/01/15 02:43:55;;;;;;;13.05;1.52;;;7.70;99.90;;;;;;5075881;28;20892;-82
2023/01/15 02:46:26;;;;;;;13.00;2.07;;;7.70;99.90;;;;;;5075299;28;20483;-83
2023/01/15 02:48:54;;;;;;;16.08;3.63;;;7.80;99.90;;;;;;5076206;28;20016;-83
2023/01/15 02:51:27;;;;;;;12.02;2.25;;;7.70;99.90;;;;;;5074892;28;20074;-83
2023/01/15 02:53:57;;;;;;;10.90;1.77;;;7.70;99.90;;;;;;5070504;28;20061;-82
2023/01/15 02:56:27;;;;;;;8.77;1.87;;;7.70;99.90;;;;;;5038206;28;20021;-83
2023/01/15 02:58:58;;;;;;;9.20;1.48;;;7.70;99.90;;;;;;5038241;28;20043;-83
2023/01/15 03:01:28;;;;;;;;;;;7.70;99.90;;;;;;5038470;28;20025;-83
2023/01/15 03:04:17;;;;;;;12.25;2.10;;;7.70;99.90;;;;;;5038503;28;19957;-83
2023/01/15 03:07:18;;;;;;;10.75;1.60;;;7.60;99.90;;;;;;5056663;28;20025;-83
2023/01/15 03:09:46;;;;;;;8.82;1.83;;;7.60;99.90;;;;;;4939455;29;20031;-83
2023/01/15 03:13:01;;;;;;;12.57;1.85;;;7.60;99.90;;;;;;5022700;28;20044;-83
2023/01/15 03:18:30;;;;;;;10.82;1.80;;;7.60;99.90;;;;;;5056047;28;20048;-84
2023/01/15 03:21:01;;;;;;;7.28;1.30;;;7.60;99.90;;;;;;5038039;28;20406;-83
2023/01/15 03:23:29;;;;;;;13.35;2.03;;;7.60;99.90;;;;;;5037885;28;20086;-84
2023/01/15 03:25:55;;;;;;;10.20;1.77;;;7.60;99.90;;;;;;5037648;28;20461;-82
2023/01/15 03:28:25;;;;;;;8.88;1.85;;;7.60;99.90;;;;;;5037722;28;20459;-88
2023/01/15 03:30:50;;;;;;;12.00;1.88;;;7.60;99.90;;;;;;5037919;28;20025;-83
2023/01/15 03:33:17;;;;;;;10.40;1.50;;;7.60;99.90;;;;;;5021368;28;20522;-83
2023/01/15 03:35:52;;;;;;;12.40;1.80;;;7.60;99.90;;;;;;5021205;28;20391;-83
2023/01/15 03:38:24;;;;;;;14.85;1.95;;;7.60;99.90;;;;;;5055716;28;20024;-83
2023/01/15 03:41:05;;;;;;;11.93;2.30;;;7.60;99.90;;;;;;5037545;28;20049;-84
2023/01/15 03:43:47;;;;;;;11.98;1.70;;;7.60;99.90;;;;;;5037671;28;20029;-83
2023/01/15 03:46:54;;;;;;;10.85;1.92;;;7.50;99.90;;;;;;5037516;28;20090;-83
2023/01/15 03:49:32;;;;;;;7.82;1.77;;;7.50;99.90;;;;;;5055141;28;20100;-83
2023/01/15 03:52:12;;;;;;;10.95;1.50;;;7.60;99.90;;;;;;5037533;28;20025;-83
2023/01/15 03:55:12;;;;;;;8.53;1.87;;;7.50;99.90;;;;;;5054680;28;20057;-83
2023/01/15 03:57:49;;;;;;;11.77;1.63;;;7.50;99.90;;;;;;5037071;28;20095;-83
2023/01/15 04:00:21;;;;;;;5.28;1.65;;;7.50;99.90;;;;;;5037231;28;20082;-83
2023/01/15 04:02:48;;;;;;;13.75;2.00;;;7.50;99.90;;;;;;5037306;28;20245;-83
2023/01/15 04:05:15;;;;;;;11.25;1.50;;;7.50;99.90;;;;;;5021198;28;20036;-83
2023/01/15 04:07:42;;;;;;;8.98;1.58;;;7.50;99.90;;;;;;5037059;28;20029;-83
2023/01/15 04:10:09;;;;;;;13.25;1.85;;;7.50;99.90;;;;;;5020826;28;20071;-83
2023/01/15 04:12:35;;;;;;;9.77;1.60;;;7.50;99.90;;;;;;5037335;28;20055;-83
2023/01/15 04:15:00;;;;;;;10.50;1.77;;;7.50;99.90;;;;;;5026616;28;20120;-83
2023/01/15 04:17:26;;;;;;;10.13;1.45;;;7.50;99.90;;;;;;5062604;28;20035;-85
2023/01/15 04:19:52;;;;;;;11.27;2.40;;;7.50;99.90;;;;;;5031450;28;20037;-83
2023/01/15 04:22:23;;;;;;;11.10;1.55;;;7.40;99.90;;;;;;5013005;28;20044;-83
2023/01/15 04:24:50;;;;;;;10.45;2.38;;;7.50;99.90;;;;;;5064014;28;20025;-83
2023/01/15 04:27:19;;;;;;;14.55;2.05;;;7.40;99.90;;;;;;5046131;28;20067;-83
2023/01/15 04:29:45;;;;;;;10.98;1.80;;;7.50;99.90;;;;;;5026455;28;20063;-83
2023/01/15 04:32:10;;;;;;;11.70;3.35;;;7.40;99.90;;;;;;5058514;28;20029;-83
2023/01/15 04:34:36;;;;;;;8.13;1.67;;;7.40;99.90;;;;;;5036854;28;20031;-83
2023/01/15 04:37:02;;;;;;;12.57;2.25;;;7.40;99.90;;;;;;5035597;28;20021;-84
2023/01/15 04:39:28;;;;;;;12.30;1.48;;;7.40;99.90;;;;;;5054279;28;20032;-83
2023/01/15 04:44:38;;;;;;;10.60;1.20;;;7.40;99.90;;;;;;5054492;28;20040;-83
2023/01/15 04:47:04;;;;;;;7.55;1.52;;;7.40;99.90;;;;;;5036520;28;20025;-83
2023/01/15 04:49:32;;;;;;;12.93;2.03;;;7.40;99.90;;;;;;5037027;28;20021;-83
2023/01/15 04:51:58;;;;;;;12.50;1.80;;;7.30;99.90;;;;;;5020115;28;20051;-83
2023/01/15 04:54:24;;;;;;;12.45;2.03;;;7.30;99.90;;;;;;5051662;28;20464;-83
2023/01/15 04:56:55;;;;;;;9.55;1.50;;;7.30;99.90;;;;;;5072819;28;20383;-83
2023/01/15 04:59:23;;;;;;;13.95;2.72;;;7.30;99.90;;;;;;5072732;28;20020;-83
2023/01/15 05:01:49;;;;;;;11.65;2.13;;;7.30;99.90;;;;;;5072530;28;20121;-83
2023/01/15 05:04:18;;;;;;;11.80;2.05;;;7.30;99.90;;;;;;5055747;28;20029;-84
2023/01/15 05:06:46;;;;;;;7.97;1.75;;;7.30;99.90;;;;;;5072146;28;20115;-83
2023/01/15 05:09:17;;;;;;;11.23;2.17;;;7.30;99.90;;;;;;5072632;28;20025;-83
2023/01/15 05:11:43;;;;;;;14.18;2.00;;;7.20;99.90;;;;;;5072250;28;20016;-83
2023/01/15 05:14:09;;;;;;;19.20;1.90;;;7.30;99.90;;;;;;5072143;28;20034;-83
2023/01/15 05:16:36;;;;;;;11.25;2.58;;;7.30;99.90;;;;;;5072171;28;20510;-84
2023/01/15 05:19:06;;;;;;;10.88;2.10;;;7.30;99.90;;;;;;5072209;28;20025;-83
2023/01/15 05:21:34;;;;;;;14.07;1.92;;;7.20;99.90;;;;;;5073835;28;20104;-83
2023/01/15 05:24:04;;;;;;;16.98;2.17;;;7.30;99.90;;;;;;5072397;28;20028;-83
2023/01/15 05:26:31;;;;;;;10.88;2.25;;;7.30;99.90;;;;;;5072145;28;20021;-83
2023/01/15 05:28:59;;;;;;;8.07;1.83;;;7.30;99.90;;;;;;5073620;28;20024;-83
2023/01/15 05:31:32;;;;;;;13.73;2.15;;;7.30;99.90;;;;;;5072046;28;20032;-83
2023/01/15 05:34:00;;;;;;;10.80;1.52;;;7.20;99.90;;;;;;5072294;28;20073;-83
2023/01/15 05:36:29;;;;;;;11.02;1.65;;;7.20;99.90;;;;;;5072179;28;20023;-83
2023/01/15 05:39:01;;;;;;;14.70;2.35;;;7.20;99.90;;;;;;5071846;28;20112;-82
2023/01/15 05:44:12;;;;;;;11.23;1.67;;;7.20;99.90;;;;;;5073457;28;20120;-83
2023/01/15 05:46:39;;;;;;;10.75;2.80;;;7.10;99.90;;;;;;5071752;28;20048;-85
2023/01/15 05:49:08;;;;;;;12.32;1.90;;;7.10;99.90;;;;;;5072186;28;20021;-82
2023/01/15 05:51:35;;;;;;;10.73;2.00;;;7.00;99.90;;;;;;5071753;28;20141;-82
2023/01/15 05:54:02;;;;;;;13.95;2.40;;;7.00;99.90;;;;;;5055005;28;20152;-83
2023/01/15 05:56:28;;;;;;;12.23;1.83;;;7.00;99.90;;;;;;5073276;28;20028;-82
2023/01/15 05:58:56;;;;;;;7.68;1.60;;;7.00;99.90;;;;;;5071881;28;20032;-83
2023/01/15 06:01:22;;;;;;;10.43;2.05;;;7.00;99.90;;;;;;5071917;28;20017;-82
2023/01/15 06:03:48;;;;;;;16.77;1.83;;;7.00;99.90;;;;;;5071955;28;20066;-83
2023/01/15 06:06:17;;;;;;;14.23;2.40;;;7.00;99.90;;;;;;5072117;28;20024;-83
2023/01/15 06:08:43;;;;;;;11.02;1.80;;;7.00;99.90;;;;;;5071918;28;20033;-83
2023/01/15 06:11:12;;;;;;;14.05;1.90;;;7.00;99.90;;;;;;5071705;28;20028;-83
2023/01/15 06:13:40;;;;;;;13.45;2.10;;;7.00;99.90;;;;;;5073356;28;20115;-83
2023/01/15 06:16:09;;;;;;;12.82;1.70;;;6.90;99.90;;;;;;5071613;28;20032;-83
2023/01/15 06:18:35;;;;;;;9.95;1.65;;;7.00;99.90;;;;;;5071753;28;20027;-83
2023/01/15 06:21:10;;;;;;;10.13;1.40;;;6.90;99.90;;;;;;5071471;28;20060;-83
2023/01/15 06:23:38;;;;;;;12.23;2.25;;;6.90;99.90;;;;;;5071445;28;20498;-83
2023/01/15 06:26:07;;;;;;;7.65;2.13;;;6.90;99.90;;;;;;5071297;28;20368;-83
2023/01/15 06:28:33;;;;;;;11.85;1.58;;;6.90;99.90;;;;;;5071734;28;20025;-84
2023/01/15 06:30:59;;;;;;;9.35;1.70;;;6.90;99.90;;;;;;5070235;28;20025;-85
2023/01/15 06:33:29;;;;;;;9.57;1.52;;;6.90;99.90;;;;;;5071782;28;20024;-84
2023/01/15 06:36:00;;;;;;;10.68;1.75;;;7.00;99.90;;;;;;5069734;28;20064;-85
2023/01/15 06:38:26;;;;;;;13.27;2.22;;;6.90;99.90;;;;;;5054662;28;20045;-84
2023/01/15 06:40:52;;;;;;;10.40;1.67;;;6.90;99.90;;;;;;5071129;28;20432;-84
2023/01/15 06:48:46;;;;;;;11.32;1.80;;;6.90;99.90;;;;;;5057786;28;20031;-83
2023/01/15 06:51:19;;;;;;;10.23;1.63;;;6.90;99.90;;;;;;5071456;28;20025;-83
2023/01/15 06:53:45;;;;;;;7.10;1.73;;;6.90;99.90;;;;;;5071239;28;20080;-84
2023/01/15 06:56:14;;;;;;;12.32;1.85;;;6.90;99.90;;;;;;5072775;28;20016;-83
2023/01/15 06:58:43;;;;;;;6.75;1.10;;;6.80;99.90;;;;;;5071512;28;20044;-84
2023/01/15 07:01:14;;;;;;;12.25;1.50;;;6.90;99.90;;;;;;5073882;28;20020;-83
2023/01/15 07:03:42;;;;;;;;;;;6.80;99.90;;;;;;5058742;28;20029;-83
2023/01/15 07:06:12;;;;;;;7.80;1.80;;;6.80;99.90;;;;;;5075279;28;19915;-83
2023/01/15 07:08:38;;;;;;;15.68;2.50;;;6.80;99.90;;;;;;5076440;28;20056;-83
2023/01/15 07:11:13;;;;;;;8.63;1.50;;;6.80;99.90;;;;;;5074875;28;20114;-84
2023/01/15 07:13:39;;;;;;;11.48;1.75;;;6.80;99.90;;;;;;5074995;28;20388;-87
2023/01/15 07:16:25;;;;;;;13.40;1.58;;;6.90;99.90;;;;;;5074379;28;20032;-84
2023/01/15 07:18:50;;;;;;;9.57;1.52;;;6.80;99.90;;;;;;5075495;28;20119;-85
2023/01/15 07:21:16;;;;;;;10.73;1.75;;;6.80;99.90;;;;;;5075298;28;20059;-84
2023/01/15 07:23:41;;;;;;;12.80;1.63;;;6.90;99.90;;;;;;5041499;28;20036;-83
2023/01/15 07:26:07;;;;;;;10.75;2.05;;;6.80;99.90;;;;;;5057738;28;20124;-83
2023/01/15 07:28:33;;;;;;;14.50;2.10;;;6.80;99.90;;;;;;5057922;28;20123;-83
2023/01/15 07:30:58;;;;;;;12.15;2.03;;;6.80;99.90;;;;;;5041344;28;20073;-83
2023/01/15 07:33:24;;;;;;;10.63;1.48;;;6.80;99.90;;;;;;5075251;28;20027;-83
2023/01/15 07:35:50;;;;;;;12.75;2.33;;;6.80;99.90;;;;;;5074298;28;20460;-85
2023/01/15 07:38:23;;;;;;;9.70;1.55;;;6.80;99.90;;;;;;5074479;28;20413;-83
2023/01/15 07:49:44;;;;;;;12.18;1.70;;;6.80;99.90;;;;;;5074259;28;20028;-83
2023/01/15 07:51:51;;;;;;;11.25;2.15;;;6.70;99.90;;;;;;5075222;28;20040;-83
2023/01/15 07:54:17;;;;;;;9.90;1.50;;;6.60;99.90;;;;;;5073945;28;20052;-83
2023/01/15 07:56:43;;;;;;;11.05;2.30;;;6.60;99.90;;;;;;5074122;28;20064;-83
2023/01/15 07:59:08;;;;;;;9.85;2.03;;;6.60;99.90;;;;;;5040428;28;20025;-83
2023/01/15 08:01:34;;;;;;;12.43;1.85;;;6.60;99.90;;;;;;5074058;28;20028;-83
2023/01/15 08:03:59;;;;;;;13.05;1.90;;;6.60;99.90;;;;;;5056863;28;20395;-83
2023/01/15 08:06:25;;;;;;;6.55;1.58;;;6.60;99.90;;;;;;5057224;28;20384;-82
2023/01/15 08:08:51;;;;;;;11.68;1.50;;;6.60;99.90;;;;;;5073945;28;20029;-83
2023/01/15 08:16:44;;;;;;;16.35;1.98;;;6.60;99.90;;;;;;5073947;28;20059;-83
2023/01/15 08:19:10;;;;;;;10.40;1.83;;;6.50;99.90;;;;;;5040358;28;20376;-83
2023/01/15 08:21:35;;;;;;;13.02;2.00;;;6.50;99.90;;;;;;5040048;28;20029;-83
2023/01/15 08:24:01;;;;;;;8.65;1.80;;;6.50;99.90;;;;;;5057132;28;20029;-83
2023/01/15 08:26:27;;;;;;;11.75;1.52;;;6.50;99.90;;;;;;5056594;28;20025;-83
2023/01/15 08:28:53;;;;;;;11.15;1.77;;;6.50;99.90;;;;;;5056407;28;20054;-82
2023/01/15 08:31:18;;;;;;;12.73;1.80;;;6.50;99.90;;;;;;5056652;28;20028;-82
2023/01/15 08:33:44;;;;;;;14.23;2.13;;;6.50;99.90;;;;;;5073419;28;20082;-81
2023/01/15 08:36:10;;;;;;;9.55;1.77;;;6.50;99.90;;;;;;5073061;28;20044;-81
2023/01/15 08:38:35;;;;;;;11.57;1.65;;;6.50;99.90;;;;;;5056150;28;20052;-81
2023/01/15 08:41:02;;;;;;;9.23;1.95;;;6.50;99.90;;;;;;5056149;28;20111;-82
2023/01/15 08:43:31;;;;;;;7.30;1.35;;;6.50;99.90;;;;;;5040339;28;20494;-83
2023/01/15 08:45:59;;;;;;;9.60;1.95;;;6.50;99.90;;;;;;5073843;28;20056;-82
2023/01/15 08:48:27;;;;;;;11.30;1.48;;;6.50;99.90;;;;;;5072861;28;20044;-82
2023/01/15 08:50:53;;;;;;;8.57;1.52;;;6.50;99.90;;;;;;5072631;28;20111;-83
2023/01/15 08:53:19;;;;;;;8.13;1.45;;;6.50;99.90;;;;;;5055594;28;20124;-83
2023/01/15 08:55:48;;;;;;;10.77;1.38;;;6.60;99.90;;;;;;5036112;28;20017;-83
2023/01/15 08:58:14;;;;;;;8.75;1.65;;;6.60;99.90;;;;;;5035570;28;20086;-83
2023/01/15 09:00:41;;;;;;;7.45;1.20;;;6.60;99.90;;;;;;5036352;28;20473;-83
2023/01/15 09:03:12;;;;;;;7.57;1.30;;;6.60;99.90;;;;;;5053573;28;20032;-83
2023/01/15 09:05:38;;;;;;;8.60;1.70;;;6.60;99.90;;;;;;5036280;28;20068;-85
2023/01/15 09:08:08;;;;;;;9.45;1.50;;;6.60;99.90;;;;;;5035581;28;20401;-87
2023/01/15 09:10:37;;;;;;;8.77;1.65;;;6.60;99.90;;;;;;5036048;28;20032;-85
2023/01/15 09:13:07;;;;;;;10.60;1.83;;;6.70;99.90;;;;;;5003124;28;20095;-86
2023/01/15 09:15:35;;;;;;;7.78;1.35;;;6.70;99.90;;;;;;5013125;28;20045;-85
2023/01/15 09:18:11;;;;;;;;;;;;;;;;;;;;;
2023/01/15 09:20:37;;;;;;;8.35;1.10;;;6.70;99.90;;;;;;5016130;28;20026;-84
2023/01/15 09:23:05;;;;;;;9.23;1.50;;;6.80;99.90;;;;;;5016127;28;20116;-82
2023/01/15 09:25:36;;;;;;;7.45;1.77;;;6.80;99.90;;;;;;4999902;28;20030;-84
2023/01/15 09:28:28;;;;;;;10.55;2.50;;;6.80;99.90;;;;;;5000583;28;20088;-84
2023/01/15 09:30:59;;;;;;;7.05;1.30;;;6.80;99.90;;;;;;4999937;28;20069;-83
2023/01/15 09:33:28;;;;;;;9.20;1.45;;;6.90;99.90;;;;;;5015787;28;20517;-83
2023/01/15 09:35:58;;;;;;;8.38;1.98;;;6.90;99.90;;;;;;5016131;28;20030;-83
2023/01/15 09:38:33;;;;;;;5.22;1.35;;;6.90;99.90;;;;;;5015555;28;20049;-83
2023/01/15 09:42:04;;;;;;;22.08;2.13;;;6.90;99.90;;;;;;5015795;28;20119;-82
2023/01/15 09:44:20;;;;;;;6.30;1.30;;;6.90;99.90;;;;;;5034590;28;20038;-83
2023/01/15 09:47:01;;;;;;;8.45;1.55;;;6.90;99.90;;;;;;5015407;28;20537;-80
2023/01/15 09:49:32;;;;;;;8.95;1.60;;;7.00;99.90;;;;;;5033333;28;20079;-81
2023/01/15 09:52:24;;;;;;;8.05;1.63;;;6.90;99.90;;;;;;5015774;28;20029;-82
2023/01/15 09:55:00;;;;;;;6.90;1.40;;;7.00;99.90;;;;;;5037830;28;20132;-82
2023/01/15 09:57:27;;;;;;;14.68;2.53;;;7.00;99.90;;;;;;5053298;28;20032;-81
2023/01/15 10:00:00;;;;;;;9.40;1.80;;;7.10;99.90;;;;;;5052524;28;20033;-81
2023/01/15 10:02:54;;;;;;;12.15;1.10;;;7.10;99.90;;;;;;5036274;28;20468;-82
2023/01/15 10:05:19;;;;;;;8.90;1.73;;;7.20;99.90;;;;;;5051988;28;20088;-82
2023/01/15 10:08:08;;;;;;;20.30;2.70;;;7.20;99.90;;;;;;5053281;28;20029;-81
2023/01/15 10:10:45;;;;;;;11.05;1.67;;;7.30;99.90;;;;;;5051226;28;20040;-82
2023/01/15 10:13:40;;;;;;;13.15;1.80;;;7.30;99.90;;;;;;5051653;28;20029;-87
2023/01/15 10:16:06;;;;;;;11.90;2.33;;;7.40;99.90;;;;;;5051821;28;20460;-81
2023/01/15 10:18:32;;;;;;;8.00;1.50;;;7.50;99.90;;;;;;5035490;28;20025;-82
2023/01/15 10:21:06;;;;;;;7.00;1.13;;;7.50;99.90;;;;;;5052106;28;20540;-82
2023/01/15 10:23:46;;;;;;;10.38;1.98;;;7.50;99.90;;;;;;5051734;28;20029;-83
2023/01/15 10:26:39;;;;;;;9.43;1.70;;;7.60;99.90;;;;;;5052352;28;20021;-90
2023/01/15 10:29:25;;;;;;;9.77;1.80;;;7.60;99.90;;;;;;5052306;28;20021;-82
2023/01/15 10:31:55;;;;;;;8.23;1.75;;;7.60;99.90;;;;;;5052105;28;20488;-83
2023/01/15 10:34:38;;;;;;;10.73;1.55;;;7.60;99.90;;;;;;5051636;28;20055;-82
2023/01/15 10:37:24;;;;;;;4.85;1.30;;;7.70;99.90;;;;;;5057389;28;20052;-81
2023/01/15 10:40:25;;;;;;;10.25;1.70;;;7.70;99.90;;;;;;5055627;28;20483;-83
2023/01/15 10:43:15;;;;;;;9.50;1.90;;;7.80;99.90;;;;;;5036873;28;20119;-80
2023/01/15 10:45:52;;;;;;;10.27;1.77;;;7.90;99.90;;;;;;5056642;28;20032;-80
2023/01/15 10:48:32;;;;;;;8.15;1.75;;;7.90;99.90;;;;;;5056244;28;20037;-80
2023/01/15 10:51:02;;;;;;;10.98;1.60;;;7.90;99.90;;;;;;5055330;28;20062;-80
2023/01/15 10:53:43;;;;;;;11.43;1.57;;;7.90;99.90;;;;;;5056173;28;20151;-80
2023/01/15 10:56:37;;;;;;;12.23;2.28;;;7.90;99.90;;;;;;5054853;28;20045;-80
2023/01/15 10:59:09;;;;;;;6.28;1.38;;;7.90;99.90;;;;;;5054778;28;20469;-80
2023/01/15 11:01:37;;;;;;;4.38;1.27;;;7.90;99.90;;;;;;5054857;28;20021;-81
2023/01/15 11:04:03;;;;;;;9.98;1.65;;;7.90;99.90;;;;;;5055388;28;20032;-80
2023/01/15 11:06:31;;;;;;;6.88;1.85;;;8.00;99.90;;;;;;5056008;28;20035;-80
2023/01/15 11:08:59;;;;;;;14.25;2.30;;;8.00;99.90;;;;;;5054688;28;20075;-79
2023/01/15 11:19:39;;;;;;;8.43;2.03;;;8.00;99.90;;;;;;5055431;28;20033;-83
2023/01/15 11:22:11;;;;;;;11.68;2.67;;;8.10;99.90;;;;;;5056031;28;20017;-83
2023/01/15 11:24:44;;;;;;;12.27;1.70;;;8.10;99.90;;;;;;5054675;28;20068;-81
2023/01/15 11:27:21;;;;;;;9.10;1.80;;;8.20;99.90;;;;;;5055965;28;20025;-83
2023/01/15 11:29:55;;;;;;;9.52;1.38;;;8.10;99.90;;;;;;5055325;28;20480;-83
2023/01/15 11:32:32;;;;;;;9.43;1.83;;;8.10;99.90;;;;;;5054162;28;20027;-84
2023/01/15 11:35:00;;;;;;;9.07;1.80;;;8.00;99.90;;;;;;5054690;28;20373;-83
2023/01/15 11:37:27;;;;;;;11.20;1.73;;;8.00;99.90;;;;;;5055512;28;20075;-83
2023/01/15 11:39:55;;;;;;;8.68;2.72;;;8.00;99.90;;;;;;5054084;28;20028;-83
2023/01/15 11:51:01;;;;;;;9.20;1.55;;;8.00;99.90;;;;;;5054447;28;20048;-83
2023/01/15 11:53:31;;;;;;;11.20;2.38;;;8.10;99.90;;;;;;5055236;28;20025;-84
2023/01/15 11:56:01;;;;;;;6.43;1.70;;;8.10;99.90;;;;;;5054032;28;20041;-82
2023/01/15 11:58:31;;;;;;;6.97;1.50;;;8.10;99.90;;;;;;5053957;28;20279;-82
2023/01/15 12:00:58;;;;;;;10.57;2.13;;;8.00;99.90;;;;;;5054140;28;20112;-82
2023/01/15 12:03:28;;;;;;;8.95;1.65;;;8.10;99.90;;;;;;5037914;28;20048;-86
2023/01/15 12:05:58;;;;;;;8.00;1.58;;;8.00;99.90;;;;;;5053954;28;20046;-82
2023/01/15 12:08:54;;;;;;;8.90;1.85;;;8.00;99.90;;;;;;5053678;28;20025;-86
2023/01/15 12:11:44;;;;;;;9.77;1.55;;;8.00;99.90;;;;;;5053490;28;20101;-82
2023/01/15 12:14:40;;;;;;;9.10;1.85;;;8.00;99.90;;;;;;5054617;28;20116;-81
2023/01/15 12:17:22;;;;;;;5.43;1.20;;;8.00;99.90;;;;;;5054963;28;20032;-82
2023/01/15 12:20:02;;;;;;;7.63;1.42;;;8.10;99.90;;;;;;5053079;28;20025;-81
2023/01/15 12:22:54;;;;;;;9.63;1.33;;;8.20;99.90;;;;;;5053146;28;20028;-81
2023/01/15 12:25:37;;;;;;;8.15;1.58;;;8.20;99.90;;;;;;5053466;28;20025;-82
2023/01/15 12:28:11;;;;;;;10.75;1.63;;;8.30;99.90;;;;;;5053503;28;20028;-81
2023/01/15 12:31:03;;;;;;;9.93;1.50;;;8.30;99.90;;;;;;5053203;28;20575;-82
2023/01/15 12:34:10;;;;;;;11.05;2.25;;;8.30;99.90;;;;;;5046188;28;20037;-82
2023/01/15 12:36:38;;;;;;;6.57;1.50;;;8.30;99.90;;;;;;5052619;28;20078;-82
2023/01/15 12:39:16;;;;;;;6.20;1.02;;;8.30;99.90;;;;;;5052982;28;20021;-80
2023/01/15 12:45:02;;;;;;;7.97;1.83;;;8.20;99.90;;;;;;5054252;28;20090;-81
2023/01/15 12:47:34;;;;;;;4.45;1.17;;;8.10;99.90;;;;;;5053108;28;20021;-86
2023/01/15 12:50:46;;;;;;;7.03;1.33;;;8.00;99.90;;;;;;5052874;28;20024;-81
2023/01/15 12:53:40;;;;;;;6.82;1.20;;;7.90;99.90;;;;;;5019565;28;20041;-81
2023/01/15 12:56:08;;;;;;;5.35;1.17;;;7.80;99.90;;;;;;5053006;28;20194;-82
2023/01/15 12:58:43;;;;;;;9.25;2.10;;;7.80;99.90;;;;;;5051748;28;20384;-83
2023/01/15 13:01:29;;;;;;;6.70;1.15;;;7.80;99.90;;;;;;5052799;28;20035;-83
2023/01/15 13:04:11;;;;;;;5.50;1.05;;;7.80;99.90;;;;;;5051922;28;20064;-82
2023/01/15 13:06:41;;;;;;;7.38;1.13;;;7.80;99.90;;;;;;5053758;28;20032;-81
2023/01/15 13:09:27;;;;;;;5.95;1.55;;;7.80;99.90;;;;;;5052783;28;20068;-82
2023/01/15 13:11:52;;;;;;;7.00;1.23;;;7.80;99.90;;;;;;5052648;28;20040;-82
2023/01/15 13:14:21;;;;;;;9.43;1.20;;;7.80;99.90;;;;;;5019712;28;20033;-81
2023/01/15 13:17:06;;;;;;;5.60;1.30;;;7.80;99.90;;;;;;5053376;28;20096;-82
2023/01/15 13:19:43;;;;;;;5.97;1.15;;;7.90;99.90;;;;;;5052476;28;20029;-83
2023/01/15 13:22:17;;;;;;;8.02;1.30;;;7.90;99.90;;;;;;5053996;28;20031;-84
2023/01/15 13:25:06;;;;;;;7.50;1.33;;;7.90;99.90;;;;;;5052160;28;20028;-83
2023/01/15 13:27:54;;;;;;;8.23;1.45;;;8.00;99.90;;;;;;5052270;28;20065;-83
2023/01/15 13:31:03;;;;;;;6.72;1.27;;;8.00;99.90;;;;;;5053856;28;20083;-83
2023/01/15 13:33:40;;;;;;;9.32;1.73;;;8.00;99.90;;;;;;5046193;28;20131;-84
2023/01/15 13:36:15;;;;;;;6.95;1.27;;;8.00;99.90;;;;;;5052483;28;20365;-83
2023/01/15 13:38:50;;;;;;;7.88;2.72;;;8.00;99.90;;;;;;5053544;28;20365;-83
2023/01/15 13:42:30;;;;;;;6.55;1.55;;;8.10;99.90;;;;;;5053360;28;20021;-84
2023/01/15 13:44:27;;;;;;;9.18;1.63;;;8.10;99.90;;;;;;5054500;28;20391;-83
2023/01/15 13:50:24;;;;;;;5.10;1.73;;;8.10;99.90;;;;;;5035025;28;20037;-81
2023/01/15 13:53:04;;;;;;;7.20;1.42;;;8.10;99.90;;;;;;5051913;28;20464;-81
2023/01/15 13:55:33;;;;;;;8.65;1.65;;;8.10;99.90;;;;;;5051856;28;20048;-83
2023/01/15 13:57:59;;;;;;;7.85;1.30;;;8.10;99.90;;;;;;5052199;28;20476;-79
2023/01/15 14:00:26;;;;;;;8.05;1.90;;;8.10;99.90;;;;;;5035639;28;20040;-84
2023/01/15 14:03:00;;;;;;;6.97;1.65;;;8.10;99.90;;;;;;5052382;28;20031;-83
2023/01/15 14:05:33;;;;;;;7.07;1.30;;;8.10;99.90;;;;;;5051823;28;20022;-82
2023/01/15 14:08:01;;;;;;;7.68;1.50;;;8.00;99.90;;;;;;5052181;28;20021;-84
2023/01/15 14:10:29;;;;;;;8.00;1.60;;;8.00;99.90;;;;;;5055684;28;20120;-83
2023/01/15 14:13:20;;;;;;;7.85;1.45;;;7.90;99.90;;;;;;5056126;28;20091;-83
2023/01/15 14:15:48;;;;;;;8.00;1.60;;;7.90;99.90;;;;;;5056239;28;20029;-80
2023/01/15 14:18:23;;;;;;;4.18;1.13;;;7.80;99.90;;;;;;5056666;28;20483;-85